Terminal Aerodrome Forecast
Issued by NWS Cleveland, OH

Home | Current Version | Previous Version | Text Only | Print | Product List | Glossary Off
Versions: 1 2 3 4 5 6 7 8 9 10 11 12 13 14 15 16 17 18

000
FTUS41 KCLE 181121
TAFCAK
TAF
KCAK 181121Z 1812/1912 27005KT P6SM OVC028
     FM181600 23007KT P6SM SCT035
     FM190000 13006KT P6SM -RA OVC030
     FM190300 11008KT P6SM -RA OVC015
     FM190500 03007KT 4SM -RA OVC005
     FM190800 32010KT 6SM -RASN OVC005=

USA.gov is the U.S. government's official web portal to all federal, state and local government web resources and services.